Rehoboth Beach, Delaware
Current Conditions -  °F | °C
As of 8:54 AM on Wednesday 28 Jan 2015 (Local Time) from KGED Reporting Station
Clear Clear  
Wind Chill: 14°   Ceiling: Unl
Heat Index: 25°   Visibility: 10mi
Dew Point:   Wind: 12mph
Humidity: 41%   Direction: 320°NW
Pressure: 30.14"   Gusts: 22mph
Location:  38.72°N, 75.08°W
Report Text: KGED 281354Z AUTO 32010G19KT 10SM CLR M04/M16 A3014 RMK AO2 SLP206 T10391156
Loading
Personal Weather Stations






























Interactive Weather Map New forecast layout! Learn more

10-Day Weather Forecast

Advertisements
Track Severe Weather on mobile